sensor_id;sensor_type;location;lat;lon;timestamp;temperature;humidity
7806;DHT22;3948;48.138;11.530;2022-07-23T00:00:33;24.30;66.60
7806;DHT22;3948;48.138;11.530;2022-07-23T00:02:59;24.30;66.60
7806;DHT22;3948;48.138;11.530;2022-07-23T00:05:24;24.20;66.50
7806;DHT22;3948;48.138;11.530;2022-07-23T00:07:50;24.20;66.80
7806;DHT22;3948;48.138;11.530;2022-07-23T00:10:16;24.20;66.60
7806;DHT22;3948;48.138;11.530;2022-07-23T00:12:42;24.10;66.50
7806;DHT22;3948;48.138;11.530;2022-07-23T00:15:08;24.10;66.40
7806;DHT22;3948;48.138;11.530;2022-07-23T00:17:34;24.10;66.50
7806;DHT22;3948;48.138;11.530;2022-07-23T00:19:59;24.10;66.10
7806;DHT22;3948;48.138;11.530;2022-07-23T00:22:25;24.00;65.90
7806;DHT22;3948;48.138;11.530;2022-07-23T00:24:53;24.00;65.70
7806;DHT22;3948;48.138;11.530;2022-07-23T00:27:18;23.90;65.40
7806;DHT22;3948;48.138;11.530;2022-07-23T00:29:44;23.90;64.70
7806;DHT22;3948;48.138;11.530;2022-07-23T00:32:10;23.90;65.10
7806;DHT22;3948;48.138;11.530;2022-07-23T00:34:35;23.90;65.30
7806;DHT22;3948;48.138;11.530;2022-07-23T00:37:01;23.90;65.90
7806;DHT22;3948;48.138;11.530;2022-07-23T00:39:27;23.90;66.10
7806;DHT22;3948;48.138;11.530;2022-07-23T00:41:52;23.90;66.40
7806;DHT22;3948;48.138;11.530;2022-07-23T00:44:23;23.80;66.80
7806;DHT22;3948;48.138;11.530;2022-07-23T00:46:57;23.80;67.00
7806;DHT22;3948;48.138;11.530;2022-07-23T00:49:26;23.80;67.40
7806;DHT22;3948;48.138;11.530;2022-07-23T00:51:53;23.70;67.60
7806;DHT22;3948;48.138;11.530;2022-07-23T00:54:19;23.80;68.10
7806;DHT22;3948;48.138;11.530;2022-07-23T00:56:46;23.70;68.20
7806;DHT22;3948;48.138;11.530;2022-07-23T00:59:12;23.70;68.50
7806;DHT22;3948;48.138;11.530;2022-07-23T01:01:38;23.70;68.50
7806;DHT22;3948;48.138;11.530;2022-07-23T01:04:04;23.60;68.40
7806;DHT22;3948;48.138;11.530;2022-07-23T01:06:35;23.60;68.50
7806;DHT22;3948;48.138;11.530;2022-07-23T01:09:02;23.60;68.80
7806;DHT22;3948;48.138;11.530;2022-07-23T01:11:28;23.60;69.10
7806;DHT22;3948;48.138;11.530;2022-07-23T01:13:54;23.70;69.50
7806;DHT22;3948;48.138;11.530;2022-07-23T01:16:19;23.70;70.80
7806;DHT22;3948;48.138;11.530;2022-07-23T01:18:45;23.70;71.20
7806;DHT22;3948;48.138;11.530;2022-07-23T01:21:12;23.70;71.50
7806;DHT22;3948;48.138;11.530;2022-07-23T01:23:41;23.70;71.60
7806;DHT22;3948;48.138;11.530;2022-07-23T01:26:06;23.80;70.90
7806;DHT22;3948;48.138;11.530;2022-07-23T01:28:32;23.70;69.30
7806;DHT22;3948;48.138;11.530;2022-07-23T01:30:58;23.50;67.80
7806;DHT22;3948;48.138;11.530;2022-07-23T01:33:23;23.20;69.30
7806;DHT22;3948;48.138;11.530;2022-07-23T01:35:49;22.80;70.30
7806;DHT22;3948;48.138;11.530;2022-07-23T01:38:15;22.50;70.00
7806;DHT22;3948;48.138;11.530;2022-07-23T01:40:41;22.30;71.20
7806;DHT22;3948;48.138;11.530;2022-07-23T01:43:06;22.10;74.50
7806;DHT22;3948;48.138;11.530;2022-07-23T01:45:32;21.90;76.40
7806;DHT22;3948;48.138;11.530;2022-07-23T01:47:57;21.70;77.90
7806;DHT22;3948;48.138;11.530;2022-07-23T01:50:23;21.40;80.40
7806;DHT22;3948;48.138;11.530;2022-07-23T01:52:49;21.20;84.10
7806;DHT22;3948;48.138;11.530;2022-07-23T01:55:15;21.00;90.00
7806;DHT22;3948;48.138;11.530;2022-07-23T01:57:40;20.80;94.70
7806;DHT22;3948;48.138;11.530;2022-07-23T02:00:06;20.70;99.90
7806;DHT22;3948;48.138;11.530;2022-07-23T02:02:32;20.60;99.90
7806;DHT22;3948;48.138;11.530;2022-07-23T02:05:00;20.60;99.90
7806;DHT22;3948;48.138;11.530;2022-07-23T02:07:26;20.60;99.90
7806;DHT22;3948;48.138;11.530;2022-07-23T02:09:51;20.60;99.90
7806;DHT22;3948;48.138;11.530;2022-07-23T02:12:17;20.50;99.90
7806;DHT22;3948;48.138;11.530;2022-07-23T02:14:43;20.50;99.90
7806;DHT22;3948;48.138;11.530;2022-07-23T02:17:08;20.50;99.90
7806;DHT22;3948;48.138;11.530;2022-07-23T02:19:34;20.50;99.90
7806;DHT22;3948;48.138;11.530;2022-07-23T02:22:00;20.50;99.90
7806;DHT22;3948;48.138;11.530;2022-07-23T02:24:25;20.50;99.90
7806;DHT22;3948;48.138;11.530;2022-07-23T02:26:51;20.40;99.90
7806;DHT22;3948;48.138;11.530;2022-07-23T02:29:16;19.70;99.90
7806;DHT22;3948;48.138;11.530;2022-07-23T02:31:42;20.30;99.90
7806;DHT22;3948;48.138;11.530;2022-07-23T02:34:08;20.30;99.90
7806;DHT22;3948;48.138;11.530;2022-07-23T02:36:37;20.20;99.90
7806;DHT22;3948;48.138;11.530;2022-07-23T02:39:03;20.10;99.90
7806;DHT22;3948;48.138;11.530;2022-07-23T02:41:28;20.10;99.90
7806;DHT22;3948;48.138;11.530;2022-07-23T02:43:54;20.00;99.90
7806;DHT22;3948;48.138;11.530;2022-07-23T02:46:20;20.00;99.90
7806;DHT22;3948;48.138;11.530;2022-07-23T02:48:45;19.90;99.90
7806;DHT22;3948;48.138;11.530;2022-07-23T02:51:11;19.90;99.90
7806;DHT22;3948;48.138;11.530;2022-07-23T02:53:36;19.80;99.90
7806;DHT22;3948;48.138;11.530;2022-07-23T02:56:02;19.80;99.90
7806;DHT22;3948;48.138;11.530;2022-07-23T02:58:28;19.80;99.90
7806;DHT22;3948;48.138;11.530;2022-07-23T03:00:54;19.80;99.90
7806;DHT22;3948;48.138;11.530;2022-07-23T03:03:20;19.60;99.90
7806;DHT22;3948;48.138;11.530;2022-07-23T03:05:45;19.50;99.90
7806;DHT22;3948;48.138;11.530;2022-07-23T03:08:11;19.40;99.90
7806;DHT22;3948;48.138;11.530;2022-07-23T03:10:37;19.30;99.90
7806;DHT22;3948;48.138;11.530;2022-07-23T03:13:02;19.30;99.90
7806;DHT22;3948;48.138;11.530;2022-07-23T03:15:28;19.30;99.90
7806;DHT22;3948;48.138;11.530;2022-07-23T03:17:54;19.30;99.90
7806;DHT22;3948;48.138;11.530;2022-07-23T03:20:19;19.30;99.90
7806;DHT22;3948;48.138;11.530;2022-07-23T03:22:45;19.30;99.90
7806;DHT22;3948;48.138;11.530;2022-07-23T03:25:11;19.20;99.90
7806;DHT22;3948;48.138;11.530;2022-07-23T03:27:36;19.10;99.90
7806;DHT22;3948;48.138;11.530;2022-07-23T03:30:03;19.10;99.90
7806;DHT22;3948;48.138;11.530;2022-07-23T03:32:29;19.00;99.90
7806;DHT22;3948;48.138;11.530;2022-07-23T03:34:54;19.00;99.90
7806;DHT22;3948;48.138;11.530;2022-07-23T03:37:20;19.00;99.90
7806;DHT22;3948;48.138;11.530;2022-07-23T03:39:46;19.00;99.90
7806;DHT22;3948;48.138;11.530;2022-07-23T03:42:12;19.10;99.90
7806;DHT22;3948;48.138;11.530;2022-07-23T03:44:37;19.10;99.90
7806;DHT22;3948;48.138;11.530;2022-07-23T03:47:05;19.10;99.90
7806;DHT22;3948;48.138;11.530;2022-07-23T03:49:31;19.20;99.90
7806;DHT22;3948;48.138;11.530;2022-07-23T03:51:56;19.20;99.90
7806;DHT22;3948;48.138;11.530;2022-07-23T03:54:22;19.20;99.90
7806;DHT22;3948;48.138;11.530;2022-07-23T03:56:48;19.30;99.90
7806;DHT22;3948;48.138;11.530;2022-07-23T03:59:13;19.30;99.90
7806;DHT22;3948;48.138;11.530;2022-07-23T04:01:39;19.40;99.90
7806;DHT22;3948;48.138;11.530;2022-07-23T04:04:05;19.40;99.90
7806;DHT22;3948;48.138;11.530;2022-07-23T04:06:30;19.40;99.90
7806;DHT22;3948;48.138;11.530;2022-07-23T04:08:57;19.50;99.90
7806;DHT22;3948;48.138;11.530;2022-07-23T04:11:23;19.50;99.90
7806;DHT22;3948;48.138;11.530;2022-07-23T04:13:49;19.50;99.90
7806;DHT22;3948;48.138;11.530;2022-07-23T04:16:14;19.40;99.90
7806;DHT22;3948;48.138;11.530;2022-07-23T04:18:40;19.50;99.90
7806;DHT22;3948;48.138;11.530;2022-07-23T04:21:06;19.50;99.90
7806;DHT22;3948;48.138;11.530;2022-07-23T04:23:32;19.50;99.90
7806;DHT22;3948;48.138;11.530;2022-07-23T04:25:57;19.50;99.90
7806;DHT22;3948;48.138;11.530;2022-07-23T04:28:23;19.60;99.90
7806;DHT22;3948;48.138;11.530;2022-07-23T04:30:48;19.60;99.90
7806;DHT22;3948;48.138;11.530;2022-07-23T04:33:14;19.60;99.90
7806;DHT22;3948;48.138;11.530;2022-07-23T04:35:40;19.60;99.90
7806;DHT22;3948;48.138;11.530;2022-07-23T04:38:05;19.70;99.90
7806;DHT22;3948;48.138;11.530;2022-07-23T04:40:31;19.70;99.90
7806;DHT22;3948;48.138;11.530;2022-07-23T04:42:57;19.80;99.90
7806;DHT22;3948;48.138;11.530;2022-07-23T04:45:22;19.80;99.90
7806;DHT22;3948;48.138;11.530;2022-07-23T04:47:51;19.90;99.90
7806;DHT22;3948;48.138;11.530;2022-07-23T04:50:17;19.90;99.90
7806;DHT22;3948;48.138;11.530;2022-07-23T04:52:47;20.00;99.90
7806;DHT22;3948;48.138;11.530;2022-07-23T04:55:13;20.00;99.90
7806;DHT22;3948;48.138;11.530;2022-07-23T04:57:39;20.10;99.90
7806;DHT22;3948;48.138;11.530;2022-07-23T05:00:05;20.10;99.90
7806;DHT22;3948;48.138;11.530;2022-07-23T05:02:31;20.20;99.90
7806;DHT22;3948;48.138;11.530;2022-07-23T05:04:57;20.20;99.90
7806;DHT22;3948;48.138;11.530;2022-07-23T05:07:23;20.30;99.90
7806;DHT22;3948;48.138;11.530;2022-07-23T05:09:49;20.40;99.90
7806;DHT22;3948;48.138;11.530;2022-07-23T05:12:15;20.50;99.90
7806;DHT22;3948;48.138;11.530;2022-07-23T05:14:40;20.60;99.90
7806;DHT22;3948;48.138;11.530;2022-07-23T05:17:07;20.60;99.90
7806;DHT22;3948;48.138;11.530;2022-07-23T05:19:34;20.60;99.90
7806;DHT22;3948;48.138;11.530;2022-07-23T05:21:59;20.70;99.90
7806;DHT22;3948;48.138;11.530;2022-07-23T05:24:25;20.70;99.90
7806;DHT22;3948;48.138;11.530;2022-07-23T05:26:51;20.70;99.90
7806;DHT22;3948;48.138;11.530;2022-07-23T05:29:16;20.70;99.90
7806;DHT22;3948;48.138;11.530;2022-07-23T05:31:42;20.70;99.90
7806;DHT22;3948;48.138;11.530;2022-07-23T05:34:10;20.70;99.90
7806;DHT22;3948;48.138;11.530;2022-07-23T05:36:36;20.70;99.90
7806;DHT22;3948;48.138;11.530;2022-07-23T05:39:02;20.70;99.90
7806;DHT22;3948;48.138;11.530;2022-07-23T05:41:27;20.70;99.90
7806;DHT22;3948;48.138;11.530;2022-07-23T05:43:53;20.70;99.90
7806;DHT22;3948;48.138;11.530;2022-07-23T05:46:19;20.80;99.90
7806;DHT22;3948;48.138;11.530;2022-07-23T05:48:44;20.80;99.90
7806;DHT22;3948;48.138;11.530;2022-07-23T05:51:19;20.90;99.90
7806;DHT22;3948;48.138;11.530;2022-07-23T05:53:45;20.90;99.90
7806;DHT22;3948;48.138;11.530;2022-07-23T05:56:10;20.90;99.90
7806;DHT22;3948;48.138;11.530;2022-07-23T05:58:36;20.90;99.90
7806;DHT22;3948;48.138;11.530;2022-07-23T06:01:01;21.00;99.90
7806;DHT22;3948;48.138;11.530;2022-07-23T06:03:27;21.00;99.90
7806;DHT22;3948;48.138;11.530;2022-07-23T06:05:53;20.90;99.90
7806;DHT22;3948;48.138;11.530;2022-07-23T06:08:18;20.90;99.90
7806;DHT22;3948;48.138;11.530;2022-07-23T06:10:44;20.80;99.90
7806;DHT22;3948;48.138;11.530;2022-07-23T06:13:10;20.80;99.90
7806;DHT22;3948;48.138;11.530;2022-07-23T06:15:36;20.80;99.90
7806;DHT22;3948;48.138;11.530;2022-07-23T06:18:01;20.80;99.90
7806;DHT22;3948;48.138;11.530;2022-07-23T06:20:27;20.90;99.90
7806;DHT22;3948;48.138;11.530;2022-07-23T06:22:53;20.90;99.90
7806;DHT22;3948;48.138;11.530;2022-07-23T06:25:18;20.90;99.90
7806;DHT22;3948;48.138;11.530;2022-07-23T06:27:46;20.90;99.90
7806;DHT22;3948;48.138;11.530;2022-07-23T06:30:15;20.90;99.90
7806;DHT22;3948;48.138;11.530;2022-07-23T06:32:45;21.00;99.90
7806;DHT22;3948;48.138;11.530;2022-07-23T06:35:11;21.00;99.90
7806;DHT22;3948;48.138;11.530;2022-07-23T06:37:37;21.10;99.90
7806;DHT22;3948;48.138;11.530;2022-07-23T06:40:03;21.20;99.90
7806;DHT22;3948;48.138;11.530;2022-07-23T06:42:29;21.30;99.90
7806;DHT22;3948;48.138;11.530;2022-07-23T06:44:55;21.20;99.90
7806;DHT22;3948;48.138;11.530;2022-07-23T06:47:21;21.10;99.90
7806;DHT22;3948;48.138;11.530;2022-07-23T06:49:46;21.00;99.90
7806;DHT22;3948;48.138;11.530;2022-07-23T06:52:12;21.00;99.90
7806;DHT22;3948;48.138;11.530;2022-07-23T06:54:38;21.00;99.90
7806;DHT22;3948;48.138;11.530;2022-07-23T06:57:03;20.90;99.90
7806;DHT22;3948;48.138;11.530;2022-07-23T06:59:29;21.00;99.90
7806;DHT22;3948;48.138;11.530;2022-07-23T07:01:55;21.10;99.90
7806;DHT22;3948;48.138;11.530;2022-07-23T07:04:20;21.20;99.90
7806;DHT22;3948;48.138;11.530;2022-07-23T07:06:46;21.40;99.90
7806;DHT22;3948;48.138;11.530;2022-07-23T07:09:12;21.50;99.90
7806;DHT22;3948;48.138;11.530;2022-07-23T07:11:37;21.60;99.90
7806;DHT22;3948;48.138;11.530;2022-07-23T07:14:03;21.70;99.90
7806;DHT22;3948;48.138;11.530;2022-07-23T07:16:29;21.80;99.90
7806;DHT22;3948;48.138;11.530;2022-07-23T07:18:55;21.80;99.90
7806;DHT22;3948;48.138;11.530;2022-07-23T07:21:21;22.20;99.90
7806;DHT22;3948;48.138;11.530;2022-07-23T07:23:46;22.10;99.90
7806;DHT22;3948;48.138;11.530;2022-07-23T07:26:12;22.20;99.90
7806;DHT22;3948;48.138;11.530;2022-07-23T07:28:38;22.40;99.90
7806;DHT22;3948;48.138;11.530;2022-07-23T07:31:04;22.60;99.90
7806;DHT22;3948;48.138;11.530;2022-07-23T07:33:30;22.60;99.90
7806;DHT22;3948;48.138;11.530;2022-07-23T07:35:55;22.50;99.90
7806;DHT22;3948;48.138;11.530;2022-07-23T07:38:21;22.30;99.90
7806;DHT22;3948;48.138;11.530;2022-07-23T07:40:47;22.10;99.90
7806;DHT22;3948;48.138;11.530;2022-07-23T07:43:12;21.90;99.90
7806;DHT22;3948;48.138;11.530;2022-07-23T07:45:38;21.80;99.90
7806;DHT22;3948;48.138;11.530;2022-07-23T07:48:04;21.60;99.90
7806;DHT22;3948;48.138;11.530;2022-07-23T07:50:30;21.70;99.90
7806;DHT22;3948;48.138;11.530;2022-07-23T07:52:56;21.90;99.90
7806;DHT22;3948;48.138;11.530;2022-07-23T07:55:22;21.60;99.90
7806;DHT22;3948;48.138;11.530;2022-07-23T07:57:47;21.70;99.90
7806;DHT22;3948;48.138;11.530;2022-07-23T08:00:13;21.70;99.90
7806;DHT22;3948;48.138;11.530;2022-07-23T08:02:50;21.80;99.90
7806;DHT22;3948;48.138;11.530;2022-07-23T08:05:24;21.90;99.90
7806;DHT22;3948;48.138;11.530;2022-07-23T08:07:54;21.90;99.90
7806;DHT22;3948;48.138;11.530;2022-07-23T08:10:20;21.90;99.90
7806;DHT22;3948;48.138;11.530;2022-07-23T08:12:52;21.80;99.90
7806;DHT22;3948;48.138;11.530;2022-07-23T08:15:20;21.90;99.90
7806;DHT22;3948;48.138;11.530;2022-07-23T08:17:46;22.00;99.90
7806;DHT22;3948;48.138;11.530;2022-07-23T08:20:14;22.10;99.90
7806;DHT22;3948;48.138;11.530;2022-07-23T08:22:48;22.10;99.90
7806;DHT22;3948;48.138;11.530;2022-07-23T08:25:14;22.20;99.90
7806;DHT22;3948;48.138;11.530;2022-07-23T08:27:40;22.30;99.90
7806;DHT22;3948;48.138;11.530;2022-07-23T08:30:06;22.40;99.90
7806;DHT22;3948;48.138;11.530;2022-07-23T08:32:32;22.40;99.90
7806;DHT22;3948;48.138;11.530;2022-07-23T08:34:57;22.40;99.90
7806;DHT22;3948;48.138;11.530;2022-07-23T08:37:23;22.50;99.90
7806;DHT22;3948;48.138;11.530;2022-07-23T08:39:49;22.70;99.90
7806;DHT22;3948;48.138;11.530;2022-07-23T08:42:14;23.00;99.90
7806;DHT22;3948;48.138;11.530;2022-07-23T08:44:43;23.30;99.90
7806;DHT22;3948;48.138;11.530;2022-07-23T08:47:10;23.50;99.90
7806;DHT22;3948;48.138;11.530;2022-07-23T08:49:37;23.60;99.90
7806;DHT22;3948;48.138;11.530;2022-07-23T08:52:04;23.70;99.90
7806;DHT22;3948;48.138;11.530;2022-07-23T08:54:31;23.60;99.90
7806;DHT22;3948;48.138;11.530;2022-07-23T08:56:57;23.40;99.90
7806;DHT22;3948;48.138;11.530;2022-07-23T08:59:23;23.30;99.90
7806;DHT22;3948;48.138;11.530;2022-07-23T09:01:49;23.30;99.90
7806;DHT22;3948;48.138;11.530;2022-07-23T09:04:14;23.40;99.90
7806;DHT22;3948;48.138;11.530;2022-07-23T09:06:40;23.50;99.90
7806;DHT22;3948;48.138;11.530;2022-07-23T09:09:19;23.70;99.90
7806;DHT22;3948;48.138;11.530;2022-07-23T09:11:47;24.10;99.90
7806;DHT22;3948;48.138;11.530;2022-07-23T09:14:12;24.40;99.90
7806;DHT22;3948;48.138;11.530;2022-07-23T09:16:39;24.60;99.90
7806;DHT22;3948;48.138;11.530;2022-07-23T09:19:06;24.90;99.90
7806;DHT22;3948;48.138;11.530;2022-07-23T09:21:38;25.20;99.90
7806;DHT22;3948;48.138;11.530;2022-07-23T09:26:34;26.10;99.90
7806;DHT22;3948;48.138;11.530;2022-07-23T09:34:13;32.80;93.20
7806;DHT22;3948;48.138;11.530;2022-07-23T09:36:39;34.30;84.10
7806;DHT22;3948;48.138;11.530;2022-07-23T09:39:06;35.50;71.70
7806;DHT22;3948;48.138;11.530;2022-07-23T09:41:41;37.50;61.70
7806;DHT22;3948;48.138;11.530;2022-07-23T09:44:12;39.80;51.70
7806;DHT22;3948;48.138;11.530;2022-07-23T09:46:38;41.00;44.70
7806;DHT22;3948;48.138;11.530;2022-07-23T09:49:12;42.90;40.40
7806;DHT22;3948;48.138;11.530;2022-07-23T09:51:47;44.10;35.20
7806;DHT22;3948;48.138;11.530;2022-07-23T09:56:52;45.90;31.30
7806;DHT22;3948;48.138;11.530;2022-07-23T09:59:18;47.00;29.00
7806;DHT22;3948;48.138;11.530;2022-07-23T10:01:47;47.70;26.90
7806;DHT22;3948;48.138;11.530;2022-07-23T10:04:13;45.00;28.20
7806;DHT22;3948;48.138;11.530;2022-07-23T10:06:39;41.50;29.10
7806;DHT22;3948;48.138;11.530;2022-07-23T10:09:07;37.60;34.10
7806;DHT22;3948;48.138;11.530;2022-07-23T10:11:34;36.40;37.60
7806;DHT22;3948;48.138;11.530;2022-07-23T10:14:02;36.60;37.00
7806;DHT22;3948;48.138;11.530;2022-07-23T10:16:31;36.00;38.00
7806;DHT22;3948;48.138;11.530;2022-07-23T10:18:58;34.80;39.00
7806;DHT22;3948;48.138;11.530;2022-07-23T10:21:55;34.80;40.10
7806;DHT22;3948;48.138;11.530;2022-07-23T10:25:03;36.90;38.10
7806;DHT22;3948;48.138;11.530;2022-07-23T10:27:58;39.50;34.50
7806;DHT22;3948;48.138;11.530;2022-07-23T10:30:28;41.30;32.20
7806;DHT22;3948;48.138;11.530;2022-07-23T10:35:47;42.60;29.80
7806;DHT22;3948;48.138;11.530;2022-07-23T10:38:37;42.70;29.80
7806;DHT22;3948;48.138;11.530;2022-07-23T10:41:05;41.50;30.40
7806;DHT22;3948;48.138;11.530;2022-07-23T10:43:31;39.70;32.10
7806;DHT22;3948;48.138;11.530;2022-07-23T10:46:22;37.70;33.50
7806;DHT22;3948;48.138;11.530;2022-07-23T10:49:23;35.20;37.10
7806;DHT22;3948;48.138;11.530;2022-07-23T10:52:27;34.30;39.60
7806;DHT22;3948;48.138;11.530;2022-07-23T10:57:50;32.60;40.50
7806;DHT22;3948;48.138;11.530;2022-07-23T11:00:20;31.70;42.50
7806;DHT22;3948;48.138;11.530;2022-07-23T11:02:49;31.40;43.60
7806;DHT22;3948;48.138;11.530;2022-07-23T11:05:25;31.90;43.10
7806;DHT22;3948;48.138;11.530;2022-07-23T11:32:38;28.50;51.40
7806;DHT22;3948;48.138;11.530;2022-07-23T11:34:40;28.10;51.30
7806;DHT22;3948;48.138;11.530;2022-07-23T11:37:08;27.90;52.50
7806;DHT22;3948;48.138;11.530;2022-07-23T11:39:34;27.60;52.30
7806;DHT22;3948;48.138;11.530;2022-07-23T11:42:01;27.60;52.80
7806;DHT22;3948;48.138;11.530;2022-07-23T11:44:35;27.60;53.20
7806;DHT22;3948;48.138;11.530;2022-07-23T11:47:05;27.60;53.50
7806;DHT22;3948;48.138;11.530;2022-07-23T11:49:31;27.70;53.30
7806;DHT22;3948;48.138;11.530;2022-07-23T11:52:08;27.50;53.50
7806;DHT22;3948;48.138;11.530;2022-07-23T11:54:37;27.50;54.30
7806;DHT22;3948;48.138;11.530;2022-07-23T11:57:03;27.50;54.50
7806;DHT22;3948;48.138;11.530;2022-07-23T11:59:32;27.40;54.90
7806;DHT22;3948;48.138;11.530;2022-07-23T12:02:00;27.20;55.10
7806;DHT22;3948;48.138;11.530;2022-07-23T12:04:40;27.10;56.00
7806;DHT22;3948;48.138;11.530;2022-07-23T12:07:31;27.00;56.30
7806;DHT22;3948;48.138;11.530;2022-07-23T12:12:58;26.70;57.60
7806;DHT22;3948;48.138;11.530;2022-07-23T12:15:30;26.80;58.10
7806;DHT22;3948;48.138;11.530;2022-07-23T12:18:01;26.70;58.40
7806;DHT22;3948;48.138;11.530;2022-07-23T12:20:31;26.70;58.70
7806;DHT22;3948;48.138;11.530;2022-07-23T12:22:59;26.60;59.40
7806;DHT22;3948;48.138;11.530;2022-07-23T12:25:42;26.50;59.60
7806;DHT22;3948;48.138;11.530;2022-07-23T12:33:13;26.20;60.60
7806;DHT22;3948;48.138;11.530;2022-07-23T12:35:45;26.00;61.30
7806;DHT22;3948;48.138;11.530;2022-07-23T12:38:17;25.70;62.10
7806;DHT22;3948;48.138;11.530;2022-07-23T12:40:47;25.70;62.70
7806;DHT22;3948;48.138;11.530;2022-07-23T12:43:31;26.00;62.80
7806;DHT22;3948;48.138;11.530;2022-07-23T12:46:18;26.10;62.20
7806;DHT22;3948;48.138;11.530;2022-07-23T12:51:29;26.40;62.90
7806;DHT22;3948;48.138;11.530;2022-07-23T12:56:29;26.80;61.60
7806;DHT22;3948;48.138;11.530;2022-07-23T12:58:57;26.70;62.00
7806;DHT22;3948;48.138;11.530;2022-07-23T13:01:25;26.90;62.20
7806;DHT22;3948;48.138;11.530;2022-07-23T13:04:15;26.90;61.30
7806;DHT22;3948;48.138;11.530;2022-07-23T13:06:55;26.60;61.70
7806;DHT22;3948;48.138;11.530;2022-07-23T13:09:28;26.60;62.70
7806;DHT22;3948;48.138;11.530;2022-07-23T13:11:57;26.40;62.60
7806;DHT22;3948;48.138;11.530;2022-07-23T13:14:24;26.60;63.10
7806;DHT22;3948;48.138;11.530;2022-07-23T13:16:51;26.80;62.30
7806;DHT22;3948;48.138;11.530;2022-07-23T13:19:20;26.80;62.60
7806;DHT22;3948;48.138;11.530;2022-07-23T13:21:49;26.70;63.10
7806;DHT22;3948;48.138;11.530;2022-07-23T13:24:15;26.30;63.80
7806;DHT22;3948;48.138;11.530;2022-07-23T13:26:41;26.50;64.40
7806;DHT22;3948;48.138;11.530;2022-07-23T13:29:10;26.40;64.90
7806;DHT22;3948;48.138;11.530;2022-07-23T13:31:37;26.60;65.10
7806;DHT22;3948;48.138;11.530;2022-07-23T13:34:03;26.50;65.10
7806;DHT22;3948;48.138;11.530;2022-07-23T13:36:29;26.50;65.10
7806;DHT22;3948;48.138;11.530;2022-07-23T13:38:54;26.60;65.40
7806;DHT22;3948;48.138;11.530;2022-07-23T13:41:20;26.90;65.90
7806;DHT22;3948;48.138;11.530;2022-07-23T13:43:46;27.50;63.90
7806;DHT22;3948;48.138;11.530;2022-07-23T13:46:11;28.90;62.50
7806;DHT22;3948;48.138;11.530;2022-07-23T13:48:37;30.30;58.20
7806;DHT22;3948;48.138;11.530;2022-07-23T13:51:03;30.00;57.20
7806;DHT22;3948;48.138;11.530;2022-07-23T13:53:32;29.50;58.00
7806;DHT22;3948;48.138;11.530;2022-07-23T13:55:57;28.80;59.60
7806;DHT22;3948;48.138;11.530;2022-07-23T13:58:23;28.10;61.00
7806;DHT22;3948;48.138;11.530;2022-07-23T14:00:53;27.60;62.00
7806;DHT22;3948;48.138;11.530;2022-07-23T14:03:22;27.30;62.70
7806;DHT22;3948;48.138;11.530;2022-07-23T14:05:51;27.20;63.60
7806;DHT22;3948;48.138;11.530;2022-07-23T14:08:18;27.00;63.50
7806;DHT22;3948;48.138;11.530;2022-07-23T14:10:43;26.80;64.50
7806;DHT22;3948;48.138;11.530;2022-07-23T14:13:09;26.60;64.60
7806;DHT22;3948;48.138;11.530;2022-07-23T14:15:35;26.60;65.10
7806;DHT22;3948;48.138;11.530;2022-07-23T14:18:00;26.40;65.40
7806;DHT22;3948;48.138;11.530;2022-07-23T14:20:26;26.20;65.80
7806;DHT22;3948;48.138;11.530;2022-07-23T14:22:52;26.20;66.10
7806;DHT22;3948;48.138;11.530;2022-07-23T14:25:21;26.10;67.00
7806;DHT22;3948;48.138;11.530;2022-07-23T14:27:46;26.20;66.40
7806;DHT22;3948;48.138;11.530;2022-07-23T14:30:13;26.30;66.10
7806;DHT22;3948;48.138;11.530;2022-07-23T14:32:40;26.30;66.70
7806;DHT22;3948;48.138;11.530;2022-07-23T14:35:06;26.30;66.10
7806;DHT22;3948;48.138;11.530;2022-07-23T14:37:32;26.30;66.50
7806;DHT22;3948;48.138;11.530;2022-07-23T14:39:58;26.40;66.70
7806;DHT22;3948;48.138;11.530;2022-07-23T14:42:25;26.60;66.50
7806;DHT22;3948;48.138;11.530;2022-07-23T14:44:50;26.60;66.00
7806;DHT22;3948;48.138;11.530;2022-07-23T14:47:16;26.40;66.90
7806;DHT22;3948;48.138;11.530;2022-07-23T14:49:42;26.40;67.10
7806;DHT22;3948;48.138;11.530;2022-07-23T14:52:08;26.70;66.60
7806;DHT22;3948;48.138;11.530;2022-07-23T14:54:34;26.70;67.00
7806;DHT22;3948;48.138;11.530;2022-07-23T14:57:02;27.00;66.80
7806;DHT22;3948;48.138;11.530;2022-07-23T14:59:29;27.50;65.50
7806;DHT22;3948;48.138;11.530;2022-07-23T15:01:56;27.20;65.80
7806;DHT22;3948;48.138;11.530;2022-07-23T15:04:22;27.10;66.20
7806;DHT22;3948;48.138;11.530;2022-07-23T15:06:47;26.80;66.60
7806;DHT22;3948;48.138;11.530;2022-07-23T15:09:13;26.40;67.40
7806;DHT22;3948;48.138;11.530;2022-07-23T15:11:39;26.40;68.10
7806;DHT22;3948;48.138;11.530;2022-07-23T15:14:05;26.40;68.50
7806;DHT22;3948;48.138;11.530;2022-07-23T15:16:32;26.60;68.30
7806;DHT22;3948;48.138;11.530;2022-07-23T15:18:57;26.80;68.10
7806;DHT22;3948;48.138;11.530;2022-07-23T15:21:23;27.20;67.10
7806;DHT22;3948;48.138;11.530;2022-07-23T15:23:49;27.60;66.00
7806;DHT22;3948;48.138;11.530;2022-07-23T15:26:15;27.60;66.10
7806;DHT22;3948;48.138;11.530;2022-07-23T15:28:43;27.50;66.10
7806;DHT22;3948;48.138;11.530;2022-07-23T15:31:09;27.30;66.80
7806;DHT22;3948;48.138;11.530;2022-07-23T15:33:35;27.50;66.70
7806;DHT22;3948;48.138;11.530;2022-07-23T15:36:04;27.40;66.40
7806;DHT22;3948;48.138;11.530;2022-07-23T15:38:30;27.50;66.40
7806;DHT22;3948;48.138;11.530;2022-07-23T15:40:56;27.50;66.20
7806;DHT22;3948;48.138;11.530;2022-07-23T15:43:25;27.50;66.90
7806;DHT22;3948;48.138;11.530;2022-07-23T15:45:51;28.00;66.30
7806;DHT22;3948;48.138;11.530;2022-07-23T15:48:19;27.80;65.80
7806;DHT22;3948;48.138;11.530;2022-07-23T15:50:47;28.00;66.00
7806;DHT22;3948;48.138;11.530;2022-07-23T15:53:13;28.20;65.00
7806;DHT22;3948;48.138;11.530;2022-07-23T15:55:39;28.10;64.70
7806;DHT22;3948;48.138;11.530;2022-07-23T15:58:05;27.90;65.00
7806;DHT22;3948;48.138;11.530;2022-07-23T16:00:31;27.60;66.10
7806;DHT22;3948;48.138;11.530;2022-07-23T16:02:57;27.50;67.00
7806;DHT22;3948;48.138;11.530;2022-07-23T16:05:22;27.40;66.70
7806;DHT22;3948;48.138;11.530;2022-07-23T16:07:54;27.10;67.70
7806;DHT22;3948;48.138;11.530;2022-07-23T16:10:20;26.90;68.00
7806;DHT22;3948;48.138;11.530;2022-07-23T16:12:47;26.90;69.00
7806;DHT22;3948;48.138;11.530;2022-07-23T16:15:13;26.80;69.00
7806;DHT22;3948;48.138;11.530;2022-07-23T16:17:38;26.80;69.30
7806;DHT22;3948;48.138;11.530;2022-07-23T16:20:05;26.70;70.20
7806;DHT22;3948;48.138;11.530;2022-07-23T16:22:32;26.50;71.10
7806;DHT22;3948;48.138;11.530;2022-07-23T16:24:58;26.40;71.40
7806;DHT22;3948;48.138;11.530;2022-07-23T16:27:23;26.50;72.00
7806;DHT22;3948;48.138;11.530;2022-07-23T16:29:49;26.30;71.90
7806;DHT22;3948;48.138;11.530;2022-07-23T16:32:15;26.20;72.30
7806;DHT22;3948;48.138;11.530;2022-07-23T16:34:40;26.00;73.10
7806;DHT22;3948;48.138;11.530;2022-07-23T16:37:08;26.00;73.20
7806;DHT22;3948;48.138;11.530;2022-07-23T16:39:35;26.20;73.30